createdAt,value
2023-01-09T00:01:59.278Z,3.60
2023-01-09T00:04:30.579Z,3.60
2023-01-09T00:06:59.097Z,3.60
2023-01-09T00:09:27.597Z,3.60
2023-01-09T00:11:59.582Z,3.70
2023-01-09T00:14:29.430Z,3.70
2023-01-09T00:16:58.284Z,3.70
2023-01-09T00:19:26.596Z,3.70
2023-01-09T00:21:55.200Z,3.70
2023-01-09T00:24:23.672Z,3.70
2023-01-09T00:26:51.967Z,3.80
2023-01-09T00:29:20.325Z,3.80
2023-01-09T00:31:50.402Z,3.80
2023-01-09T00:34:18.882Z,3.80
2023-01-09T00:36:47.117Z,3.80
2023-01-09T00:39:15.349Z,3.80
2023-01-09T00:41:45.957Z,3.80
2023-01-09T00:44:17.057Z,3.80
2023-01-09T00:46:54.696Z,3.80
2023-01-09T00:49:24.872Z,3.80
2023-01-09T00:51:55.654Z,3.80
2023-01-09T00:54:24.639Z,3.80
2023-01-09T00:56:52.899Z,3.80
2023-01-09T00:59:21.156Z,3.80
2023-01-09T01:01:49.479Z,3.80
2023-01-09T01:04:34.864Z,3.80
2023-01-09T01:07:21.668Z,3.80
2023-01-09T01:09:50.020Z,3.80
2023-01-09T01:12:18.191Z,3.70
2023-01-09T01:14:46.435Z,3.80
2023-01-09T01:17:14.818Z,3.70
2023-01-09T01:19:43.117Z,3.70
2023-01-09T01:22:12.926Z,3.60
2023-01-09T01:24:41.302Z,3.70
2023-01-09T01:27:09.670Z,3.70
2023-01-09T01:29:37.896Z,3.70
2023-01-09T01:32:06.402Z,3.70
2023-01-09T01:34:34.582Z,3.70
2023-01-09T01:37:02.759Z,3.60
2023-01-09T01:39:32.521Z,3.60
2023-01-09T01:42:00.862Z,3.60
2023-01-09T01:44:59.389Z,3.60
2023-01-09T01:47:34.524Z,3.60
2023-01-09T01:50:06.024Z,3.60
2023-01-09T01:52:36.565Z,3.60
2023-01-09T01:55:10.540Z,3.60
2023-01-09T01:57:41.557Z,3.60
2023-01-09T02:00:12.016Z,3.60
2023-01-09T02:02:40.336Z,3.60
2023-01-09T02:05:09.128Z,3.70
2023-01-09T02:07:37.488Z,3.70
2023-01-09T02:10:08.171Z,3.70
2023-01-09T02:12:36.349Z,3.70
2023-01-09T02:15:08.233Z,3.70
2023-01-09T02:18:18.551Z,3.70
2023-01-09T02:20:57.389Z,3.70
2023-01-09T02:23:55.149Z,3.70
2023-01-09T02:27:01.359Z,3.70
2023-01-09T02:30:02.973Z,3.70
2023-01-09T02:32:43.182Z,3.80
2023-01-09T02:35:21.117Z,3.80
2023-01-09T02:37:59.290Z,3.70
2023-01-09T02:40:34.157Z,3.70
2023-01-09T02:43:03.611Z,3.80
2023-01-09T02:45:32.168Z,3.70
2023-01-09T02:48:01.945Z,3.70
2023-01-09T02:50:37.040Z,3.70
2023-01-09T02:53:34.241Z,3.70
2023-01-09T02:56:14.924Z,3.70
2023-01-09T02:59:03.370Z,3.70
2023-01-09T03:01:46.534Z,3.70
2023-01-09T03:04:24.174Z,3.70
2023-01-09T03:06:59.281Z,3.70
2023-01-09T03:09:30.493Z,3.80
2023-01-09T03:12:03.195Z,3.80
2023-01-09T03:14:34.185Z,3.80
2023-01-09T03:17:07.631Z,3.80
2023-01-09T03:19:38.397Z,3.80
2023-01-09T03:22:08.196Z,3.90
2023-01-09T03:24:36.448Z,3.90
2023-01-09T03:27:04.779Z,3.90
2023-01-09T03:29:33.022Z,3.90
2023-01-09T03:32:01.294Z,3.90
2023-01-09T03:34:29.573Z,3.80
2023-01-09T03:36:59.221Z,3.80
2023-01-09T03:39:27.505Z,3.80
2023-01-09T03:41:55.969Z,3.80
2023-01-09T03:44:24.587Z,3.80
2023-01-09T03:46:52.866Z,3.80
2023-01-09T03:49:21.744Z,3.80
2023-01-09T03:51:50.098Z,3.70
2023-01-09T03:54:20.025Z,3.80
2023-01-09T03:56:48.461Z,3.80
2023-01-09T03:59:16.796Z,3.80
2023-01-09T04:01:45.423Z,3.80
2023-01-09T04:04:13.878Z,3.80
2023-01-09T04:06:42.122Z,3.80
2023-01-09T04:09:10.369Z,3.80
2023-01-09T04:11:40.100Z,3.80
2023-01-09T04:14:08.504Z,3.80
2023-01-09T04:16:36.962Z,3.90
2023-01-09T04:19:05.411Z,3.90
2023-01-09T04:21:33.714Z,3.90
2023-01-09T04:24:03.068Z,3.90
2023-01-09T04:26:31.421Z,4.00
2023-01-09T04:29:01.377Z,4.10
2023-01-09T04:31:29.822Z,4.20
2023-01-09T04:33:58.116Z,4.20
2023-01-09T04:36:26.440Z,4.30
2023-01-09T04:38:54.670Z,4.40
2023-01-09T04:41:36.635Z,4.40
2023-01-09T04:44:07.306Z,4.50
2023-01-09T04:46:35.561Z,4.50
2023-01-09T04:49:03.850Z,4.60
2023-01-09T04:51:32.273Z,4.70
2023-01-09T04:54:00.680Z,4.70
2023-01-09T04:56:29.066Z,4.70
2023-01-09T04:58:57.430Z,4.80
2023-01-09T05:01:27.338Z,4.80
2023-01-09T05:03:55.708Z,4.80
2023-01-09T05:06:24.302Z,4.90
2023-01-09T05:08:52.666Z,4.90
2023-01-09T05:11:21.240Z,5.00
2023-01-09T05:13:49.476Z,5.00
2023-01-09T05:16:17.908Z,5.00
2023-01-09T05:18:47.744Z,5.10
2023-01-09T05:21:16.169Z,5.10
2023-01-09T05:23:44.445Z,5.10
2023-01-09T05:26:12.664Z,5.10
2023-01-09T05:28:40.808Z,5.10
2023-01-09T05:31:08.985Z,5.20
2023-01-09T05:33:37.243Z,5.20
2023-01-09T05:36:07.748Z,5.30
2023-01-09T05:38:36.052Z,5.30
2023-01-09T05:41:04.353Z,5.40
2023-01-09T05:43:32.649Z,5.40
2023-01-09T05:46:01.109Z,5.40
2023-01-09T05:48:29.348Z,5.30
2023-01-09T05:50:57.597Z,5.30
2023-01-09T05:53:27.399Z,5.30
2023-01-09T05:55:55.620Z,5.30
2023-01-09T05:58:23.939Z,5.30
2023-01-09T06:00:54.195Z,5.30
2023-01-09T06:03:22.697Z,5.40
2023-01-09T06:05:51.910Z,5.40
2023-01-09T06:08:20.152Z,5.40
2023-01-09T06:10:49.921Z,5.40
2023-01-09T06:13:18.476Z,5.40
2023-01-09T06:15:49.301Z,5.40
2023-01-09T06:18:17.762Z,5.50
2023-01-09T06:20:46.771Z,5.50
2023-01-09T06:23:15.101Z,5.50
2023-01-09T06:25:43.547Z,5.60
2023-01-09T06:28:13.318Z,5.70
2023-01-09T06:30:41.579Z,5.90
2023-01-09T06:33:09.841Z,6.10
2023-01-09T06:35:38.238Z,6.20
2023-01-09T06:38:06.512Z,6.40
2023-01-09T06:40:34.826Z,6.50
2023-01-09T06:43:03.114Z,6.60
2023-01-09T06:45:32.873Z,6.70
2023-01-09T06:48:01.276Z,6.70
2023-01-09T06:50:29.547Z,6.70
2023-01-09T06:52:57.757Z,6.80
2023-01-09T06:55:26.532Z,6.90
2023-01-09T06:57:55.041Z,6.90
2023-01-09T07:00:23.786Z,6.90
2023-01-09T07:02:53.623Z,7.00
2023-01-09T07:05:21.890Z,7.10
2023-01-09T07:07:50.319Z,7.10
2023-01-09T07:10:18.635Z,7.10
2023-01-09T07:12:47.047Z,7.10
2023-01-09T07:15:15.336Z,7.20
2023-01-09T07:17:45.471Z,7.30
2023-01-09T07:20:15.424Z,7.30
2023-01-09T07:22:43.907Z,7.40
2023-01-09T07:25:12.608Z,7.40
2023-01-09T07:27:40.987Z,7.40
2023-01-09T07:30:13.433Z,7.40
2023-01-09T07:32:41.808Z,7.40
2023-01-09T07:35:11.816Z,7.40
2023-01-09T07:37:41.693Z,7.40
2023-01-09T07:40:11.085Z,7.40
2023-01-09T07:42:39.312Z,7.50
2023-01-09T07:45:09.085Z,7.40
2023-01-09T07:47:37.445Z,7.40
2023-01-09T07:50:06.312Z,7.40
2023-01-09T07:52:34.592Z,7.30
2023-01-09T07:55:04.389Z,6.90
2023-01-09T07:57:32.705Z,6.60
2023-01-09T08:00:03.498Z,6.10
2023-01-09T08:02:31.796Z,5.70
2023-01-09T08:05:00.051Z,5.50
2023-01-09T08:07:28.280Z,5.30
2023-01-09T08:09:56.537Z,5.20
2023-01-09T08:12:26.257Z,5.10
2023-01-09T08:14:54.530Z,5.10
2023-01-09T08:17:23.602Z,5.20
2023-01-09T08:19:52.978Z,5.20
2023-01-09T08:22:21.230Z,5.20
2023-01-09T08:24:49.516Z,5.20
2023-01-09T08:27:17.793Z,5.30
2023-01-09T08:29:47.503Z,5.30
2023-01-09T08:32:15.952Z,5.40
2023-01-09T08:34:44.317Z,5.50
2023-01-09T08:37:12.645Z,5.50
2023-01-09T08:39:40.924Z,5.50
2023-01-09T08:42:26.436Z,5.50
2023-01-09T08:45:15.558Z,5.50
2023-01-09T08:47:43.824Z,5.60
2023-01-09T08:50:13.391Z,5.50
2023-01-09T08:52:41.735Z,5.50
2023-01-09T08:55:12.194Z,5.50
2023-01-09T08:57:48.700Z,5.50
2023-01-09T09:00:19.383Z,5.60
2023-01-09T09:02:51.816Z,5.60
2023-01-09T09:05:20.313Z,5.60
2023-01-09T09:07:50.062Z,5.60
2023-01-09T09:10:18.634Z,5.50
2023-01-09T09:12:49.308Z,5.50
2023-01-09T09:15:24.230Z,5.60
2023-01-09T09:17:54.784Z,5.60
2023-01-09T09:20:23.599Z,5.60
2023-01-09T09:22:52.278Z,5.70
2023-01-09T09:25:21.009Z,5.80
2023-01-09T09:27:49.512Z,5.90
2023-01-09T09:30:21.360Z,5.90
2023-01-09T09:32:49.837Z,6.00
2023-01-09T09:35:19.273Z,6.10
2023-01-09T09:37:56.715Z,6.30
2023-01-09T09:40:48.423Z,6.40
2023-01-09T09:43:58.494Z,6.50
2023-01-09T09:46:39.029Z,6.50
2023-01-09T09:49:15.357Z,6.60
2023-01-09T09:52:04.822Z,6.60
2023-01-09T09:54:38.421Z,6.60
2023-01-09T09:57:07.505Z,6.70
2023-01-09T09:59:38.864Z,6.80
2023-01-09T10:02:26.411Z,6.70
2023-01-09T10:05:01.609Z,6.70
2023-01-09T10:07:34.428Z,6.60
2023-01-09T10:10:05.863Z,6.70
2023-01-09T10:12:40.350Z,6.60
2023-01-09T10:15:17.834Z,6.60
2023-01-09T10:18:06.569Z,6.60
2023-01-09T10:20:50.577Z,6.60
2023-01-09T10:23:46.427Z,6.60
2023-01-09T10:26:22.771Z,6.60
2023-01-09T10:29:23.437Z,6.60
2023-01-09T10:32:03.154Z,6.60
2023-01-09T10:34:47.067Z,6.60
2023-01-09T10:37:19.631Z,6.60
2023-01-09T10:39:53.910Z,6.60
2023-01-09T10:42:30.853Z,6.70
2023-01-09T10:45:04.720Z,6.70
2023-01-09T10:47:37.578Z,6.70
2023-01-09T10:50:21.345Z,6.70
2023-01-09T10:52:52.289Z,6.70
2023-01-09T10:55:26.350Z,6.70
2023-01-09T10:57:58.541Z,6.70
2023-01-09T11:00:27.543Z,6.80
2023-01-09T11:02:56.329Z,6.70
2023-01-09T11:05:32.657Z,6.80
2023-01-09T11:08:05.973Z,6.80
2023-01-09T11:10:51.670Z,6.90
2023-01-09T11:13:22.821Z,6.90
2023-01-09T11:16:09.465Z,7.00
2023-01-09T11:18:41.208Z,7.00
2023-01-09T11:21:30.832Z,7.10
2023-01-09T11:24:29.712Z,7.20
2023-01-09T11:27:24.736Z,7.20
2023-01-09T11:30:17.998Z,7.20
2023-01-09T11:32:47.564Z,7.20
2023-01-09T11:35:22.578Z,7.20
2023-01-09T11:38:06.989Z,7.10
2023-01-09T11:40:56.606Z,7.10
2023-01-09T11:43:34.449Z,7.10
2023-01-09T11:46:06.989Z,7.00
2023-01-09T11:48:56.105Z,7.00
2023-01-09T11:51:28.191Z,7.00
2023-01-09T11:54:15.855Z,7.00
2023-01-09T11:56:45.210Z,7.00
2023-01-09T11:59:15.458Z,7.00
2023-01-09T12:02:13.092Z,7.00
2023-01-09T12:04:49.686Z,7.00
2023-01-09T12:07:48.546Z,7.10
2023-01-09T12:10:38.799Z,7.10
2023-01-09T12:13:19.414Z,7.10
2023-01-09T12:15:56.406Z,7.20
2023-01-09T12:18:40.907Z,7.20
2023-01-09T12:21:35.446Z,7.30
2023-01-09T12:24:40.358Z,7.40
2023-01-09T12:27:23.217Z,7.50
2023-01-09T12:30:05.035Z,7.50
2023-01-09T12:32:46.616Z,7.60
2023-01-09T12:35:25.459Z,7.60
2023-01-09T12:38:22.212Z,7.70
2023-01-09T12:41:12.855Z,7.70
2023-01-09T12:43:48.706Z,7.70
2023-01-09T12:46:20.053Z,7.80
2023-01-09T12:49:08.202Z,7.80
2023-01-09T12:51:41.063Z,7.80
2023-01-09T12:54:17.739Z,7.80
2023-01-09T12:56:50.023Z,7.80
2023-01-09T12:59:34.273Z,7.80
2023-01-09T13:02:14.160Z,7.80
2023-01-09T13:04:50.624Z,7.80
2023-01-09T13:07:24.348Z,7.70
2023-01-09T13:10:00.180Z,7.70
2023-01-09T13:12:31.610Z,7.70
2023-01-09T13:15:04.328Z,7.70
2023-01-09T13:17:40.986Z,7.70
2023-01-09T13:20:22.259Z,7.70
2023-01-09T13:22:52.454Z,7.70
2023-01-09T13:25:37.291Z,7.70
2023-01-09T13:28:12.740Z,7.70
2023-01-09T13:31:07.349Z,7.70
2023-01-09T13:33:38.040Z,7.70
2023-01-09T13:36:07.373Z,7.70
2023-01-09T13:38:39.107Z,7.70
2023-01-09T13:41:30.556Z,7.70
2023-01-09T13:44:00.901Z,7.70
2023-01-09T13:46:40.631Z,7.70
2023-01-09T13:49:33.182Z,7.70
2023-01-09T13:52:04.008Z,7.70
2023-01-09T13:55:05.739Z,7.70
2023-01-09T13:57:35.957Z,7.70
2023-01-09T14:00:49.316Z,7.70
2023-01-09T14:03:22.260Z,7.80
2023-01-09T14:06:24.259Z,7.70
2023-01-09T14:09:20.118Z,7.80
2023-01-09T14:11:49.500Z,7.70
2023-01-09T14:14:30.192Z,7.70
2023-01-09T14:16:59.901Z,7.70
2023-01-09T14:19:36.142Z,7.70
2023-01-09T14:22:05.525Z,7.70
2023-01-09T14:24:41.005Z,7.70
2023-01-09T14:27:48.153Z,7.70
2023-01-09T14:30:34.130Z,7.70
2023-01-09T14:33:04.771Z,7.70
2023-01-09T14:35:49.651Z,7.60
2023-01-09T14:38:37.471Z,7.70
2023-01-09T14:41:10.751Z,7.70
2023-01-09T14:43:55.538Z,7.70
2023-01-09T14:46:25.069Z,7.60
2023-01-09T14:49:07.292Z,7.60
2023-01-09T14:51:44.034Z,7.60
2023-01-09T14:54:24.312Z,7.60
2023-01-09T14:56:52.526Z,7.60
2023-01-09T14:59:20.672Z,7.60
2023-01-09T15:01:53.942Z,7.60
2023-01-09T15:04:31.757Z,7.60
2023-01-09T15:07:01.813Z,7.60
2023-01-09T15:09:34.437Z,7.50
2023-01-09T15:12:09.396Z,7.50
2023-01-09T15:14:43.325Z,7.50
2023-01-09T15:17:23.344Z,7.50
2023-01-09T15:19:52.082Z,7.50
2023-01-09T15:22:29.257Z,7.50
2023-01-09T15:24:57.923Z,7.50
2023-01-09T15:27:27.289Z,7.40
2023-01-09T15:29:55.597Z,7.30
2023-01-09T15:32:27.242Z,7.30
2023-01-09T15:34:57.482Z,7.30
2023-01-09T15:37:31.374Z,7.20
2023-01-09T15:40:01.912Z,7.20
2023-01-09T15:42:49.613Z,7.20
2023-01-09T15:45:25.110Z,7.20
2023-01-09T15:47:53.938Z,7.20
2023-01-09T15:50:27.559Z,7.20
2023-01-09T15:52:58.146Z,7.20
2023-01-09T15:55:36.497Z,7.30
2023-01-09T15:58:06.346Z,7.30
2023-01-09T16:00:44.170Z,7.30
2023-01-09T16:03:24.179Z,7.30
2023-01-09T16:06:05.407Z,7.30
2023-01-09T16:08:38.910Z,7.40
2023-01-09T16:11:10.767Z,7.40
2023-01-09T16:13:48.191Z,7.40
2023-01-09T16:16:28.883Z,7.40
2023-01-09T16:18:59.138Z,7.40
2023-01-09T16:21:35.621Z,7.40
2023-01-09T16:24:25.780Z,7.40
2023-01-09T16:26:54.572Z,7.40
2023-01-09T16:29:35.885Z,7.40
2023-01-09T16:32:06.327Z,7.50
2023-01-09T16:34:36.199Z,7.50
2023-01-09T16:37:06.782Z,7.50
2023-01-09T16:39:36.636Z,7.50
2023-01-09T16:42:27.748Z,7.50
2023-01-09T16:44:58.694Z,7.50
2023-01-09T16:47:27.106Z,7.50
2023-01-09T16:49:55.493Z,7.50
2023-01-09T16:52:23.758Z,7.50
2023-01-09T16:54:53.447Z,7.50
2023-01-09T16:57:21.649Z,7.40
2023-01-09T16:59:50.211Z,7.50
2023-01-09T17:02:20.314Z,7.40
2023-01-09T17:04:48.728Z,7.40
2023-01-09T17:07:18.440Z,7.40
2023-01-09T17:09:47.731Z,7.40
2023-01-09T17:12:20.289Z,7.40
2023-01-09T17:14:49.188Z,7.40
2023-01-09T17:17:18.349Z,7.40
2023-01-09T17:19:47.150Z,7.40
2023-01-09T17:22:15.566Z,7.40
2023-01-09T17:25:00.973Z,7.40
2023-01-09T17:27:51.903Z,7.30
2023-01-09T17:30:24.034Z,7.40
2023-01-09T17:32:52.334Z,7.40
2023-01-09T17:35:20.699Z,7.40
2023-01-09T17:37:48.948Z,7.30
2023-01-09T17:40:20.852Z,7.30
2023-01-09T17:42:50.663Z,7.30
2023-01-09T17:45:19.160Z,7.30
2023-01-09T17:47:47.535Z,7.30
2023-01-09T17:50:19.865Z,7.30
2023-01-09T17:52:48.627Z,7.30
2023-01-09T17:55:19.709Z,7.30
2023-01-09T17:57:49.713Z,7.30
2023-01-09T18:00:26.628Z,7.30
2023-01-09T18:02:54.985Z,7.30
2023-01-09T18:05:24.088Z,7.30
2023-01-09T18:07:52.823Z,7.30
2023-01-09T18:10:24.556Z,7.30
2023-01-09T18:12:55.648Z,7.30
2023-01-09T18:15:25.124Z,7.30
2023-01-09T18:17:53.606Z,7.20
2023-01-09T18:20:21.895Z,7.30
2023-01-09T18:22:50.150Z,7.30
2023-01-09T18:25:18.388Z,7.30
2023-01-09T18:27:46.641Z,7.20
2023-01-09T18:30:16.470Z,7.20
2023-01-09T18:32:44.780Z,7.20
2023-01-09T18:35:12.907Z,7.20
2023-01-09T18:37:41.245Z,7.20
2023-01-09T18:40:10.782Z,7.20
2023-01-09T18:42:40.333Z,7.30
2023-01-09T18:45:09.904Z,7.20
2023-01-09T18:47:41.883Z,7.20
2023-01-09T18:50:11.576Z,7.20
2023-01-09T18:52:39.756Z,7.20
2023-01-09T18:55:08.647Z,7.20
2023-01-09T18:57:37.654Z,7.20
2023-01-09T19:00:07.067Z,7.20
2023-01-09T19:02:35.340Z,7.20
2023-01-09T19:05:05.661Z,7.20
2023-01-09T19:07:33.945Z,7.20
2023-01-09T19:10:02.195Z,7.20
2023-01-09T19:12:30.369Z,7.20
2023-01-09T19:14:58.540Z,7.20
2023-01-09T19:17:26.654Z,7.20
2023-01-09T19:19:54.815Z,7.10
2023-01-09T19:22:26.699Z,7.10
2023-01-09T19:24:54.917Z,7.10
2023-01-09T19:27:23.336Z,7.10
2023-01-09T19:29:51.578Z,7.10
2023-01-09T19:32:19.841Z,7.10
2023-01-09T19:34:48.141Z,7.10
2023-01-09T19:37:18.380Z,7.10
2023-01-09T19:39:48.002Z,7.10
2023-01-09T19:42:16.412Z,7.00
2023-01-09T19:44:46.234Z,7.00
2023-01-09T19:47:14.740Z,7.00
2023-01-09T19:49:42.977Z,6.90
2023-01-09T19:52:11.350Z,6.90
2023-01-09T19:54:40.373Z,6.90
2023-01-09T19:57:10.263Z,6.80
2023-01-09T19:59:42.842Z,6.80
2023-01-09T20:02:11.930Z,6.80
2023-01-09T20:04:40.211Z,6.80
2023-01-09T20:07:08.713Z,6.80
2023-01-09T20:09:36.943Z,6.80
2023-01-09T20:12:05.578Z,6.80
2023-01-09T20:14:37.235Z,6.80
2023-01-09T20:17:05.621Z,6.80
2023-01-09T20:19:33.910Z,6.80
2023-01-09T20:22:02.073Z,6.80
2023-01-09T20:24:30.309Z,6.80
2023-01-09T20:26:58.599Z,6.80
2023-01-09T20:29:26.872Z,6.80
2023-01-09T20:31:56.553Z,6.80
2023-01-09T20:34:24.877Z,6.80
2023-01-09T20:36:54.631Z,6.80
2023-01-09T20:39:23.164Z,6.80
2023-01-09T20:41:51.443Z,6.80
2023-01-09T20:44:19.771Z,6.80
2023-01-09T20:46:48.594Z,6.70
2023-01-09T20:49:19.455Z,6.70
2023-01-09T20:51:50.379Z,6.70
2023-01-09T20:54:21.223Z,6.70
2023-01-09T20:56:49.795Z,6.60
2023-01-09T20:59:22.200Z,6.60
2023-01-09T21:01:50.813Z,6.60
2023-01-09T21:04:20.671Z,6.60
2023-01-09T21:06:50.217Z,6.60
2023-01-09T21:09:18.824Z,6.60
2023-01-09T21:11:47.199Z,6.60
2023-01-09T21:14:15.433Z,6.60
2023-01-09T21:16:47.892Z,6.60
2023-01-09T21:19:23.655Z,6.50
2023-01-09T21:21:53.408Z,6.50
2023-01-09T21:24:21.983Z,6.50
2023-01-09T21:26:50.160Z,6.50
2023-01-09T21:29:18.545Z,6.50
2023-01-09T21:31:46.911Z,6.50
2023-01-09T21:34:20.063Z,6.50
2023-01-09T21:36:50.143Z,6.40
2023-01-09T21:39:18.834Z,6.40
2023-01-09T21:42:04.109Z,6.40
2023-01-09T21:44:49.419Z,6.40
2023-01-09T21:47:17.634Z,6.40
2023-01-09T21:49:46.483Z,6.40
2023-01-09T21:52:18.296Z,6.40
2023-01-09T21:54:46.523Z,6.40
2023-01-09T21:57:14.671Z,6.40
2023-01-09T21:59:43.045Z,6.40
2023-01-09T22:02:13.129Z,6.40
2023-01-09T22:04:43.029Z,6.40
2023-01-09T22:07:11.600Z,6.40
2023-01-09T22:09:42.846Z,6.30
2023-01-09T22:12:13.005Z,6.40
2023-01-09T22:14:41.184Z,6.30
2023-01-09T22:17:09.495Z,6.30
2023-01-09T22:19:37.834Z,6.40
2023-01-09T22:22:08.532Z,6.40
2023-01-09T22:24:36.931Z,6.40
2023-01-09T22:27:07.192Z,6.40
2023-01-09T22:29:35.671Z,6.40
2023-01-09T22:32:06.680Z,6.40
2023-01-09T22:34:34.938Z,6.40
2023-01-09T22:37:03.512Z,6.50
2023-01-09T22:39:31.802Z,6.40
2023-01-09T22:42:00.085Z,6.40
2023-01-09T22:44:29.868Z,6.50
2023-01-09T22:46:58.567Z,6.50
2023-01-09T22:49:30.305Z,6.50
2023-01-09T22:52:01.704Z,6.50
2023-01-09T22:54:29.877Z,6.40
2023-01-09T22:56:58.269Z,6.50
2023-01-09T22:59:27.399Z,6.50
2023-01-09T23:01:57.941Z,6.50
2023-01-09T23:04:26.397Z,6.50
2023-01-09T23:06:55.029Z,6.50
2023-01-09T23:09:23.247Z,6.40
2023-01-09T23:12:03.446Z,6.40
2023-01-09T23:14:33.384Z,6.40
2023-01-09T23:17:04.063Z,6.40
2023-01-09T23:19:32.797Z,6.30
2023-01-09T23:22:01.787Z,6.30
2023-01-09T23:24:30.673Z,6.30
2023-01-09T23:26:59.305Z,6.20
2023-01-09T23:29:27.865Z,6.20
2023-01-09T23:31:56.436Z,6.20
2023-01-09T23:34:27.731Z,6.20
2023-01-09T23:36:57.675Z,6.20
2023-01-09T23:39:26.110Z,6.20
2023-01-09T23:42:11.870Z,6.30
2023-01-09T23:44:40.168Z,6.30
2023-01-09T23:47:09.008Z,6.30
2023-01-09T23:49:38.942Z,6.30
2023-01-09T23:52:10.305Z,6.30
2023-01-09T23:54:38.951Z,6.30
2023-01-09T23:57:10.156Z,6.40
2023-01-09T23:59:38.413Z,6.40
